createdAt,value
2022-08-25T00:01:52.815Z,99981.78
2022-08-25T00:04:22.839Z,99977.34
2022-08-25T00:06:50.993Z,99976.50
2022-08-25T00:09:21.309Z,99982.78
2022-08-25T00:11:49.967Z,99980.41
2022-08-25T00:14:23.376Z,99982.13
2022-08-25T00:16:51.389Z,99980.94
2022-08-25T00:19:22.283Z,99981.94
2022-08-25T00:21:49.977Z,99979.72
2022-08-25T00:24:19.711Z,99985.69
2022-08-25T00:26:49.523Z,99977.84
2022-08-25T00:29:19.705Z,99973.91
2022-08-25T00:31:48.027Z,99982.09
2022-08-25T00:34:18.682Z,99990.16
2022-08-25T00:36:47.082Z,99977.53
2022-08-25T00:39:15.284Z,99984.69
2022-08-25T00:41:43.894Z,99974.47
2022-08-25T00:44:14.029Z,99988.56
2022-08-25T00:46:46.125Z,99984.81
2022-08-25T00:49:24.982Z,99988.22
2022-08-25T00:51:57.724Z,99980.19
2022-08-25T00:54:29.737Z,99969.75
2022-08-25T00:56:59.495Z,99978.81
2022-08-25T00:59:28.660Z,99979.47
2022-08-25T01:01:58.789Z,99982.59
2022-08-25T01:04:26.726Z,99985.47
2022-08-25T01:06:55.602Z,99986.13
2022-08-25T01:09:23.416Z,99974.84
2022-08-25T01:11:51.217Z,99976.56
2022-08-25T01:14:22.428Z,99976.44
2022-08-25T01:16:51.097Z,99979.34
2022-08-25T01:19:20.609Z,99981.38
2022-08-25T01:21:51.580Z,99973.50
2022-08-25T01:24:31.978Z,99981.88
2022-08-25T01:26:59.676Z,99979.47
2022-08-25T01:29:28.157Z,99973.53
2022-08-25T01:31:58.968Z,99974.53
2022-08-25T01:34:27.830Z,99972.50
2022-08-25T01:36:58.565Z,99969.06
2022-08-25T01:39:27.808Z,99976.91
2022-08-25T01:42:09.511Z,99979.81
2022-08-25T01:44:38.709Z,99972.81
2022-08-25T01:47:07.880Z,99978.06
2022-08-25T01:49:35.932Z,99968.69
2022-08-25T01:52:11.589Z,99977.72
2022-08-25T01:54:39.858Z,99976.16
2022-08-25T01:57:07.648Z,99972.94
2022-08-25T01:59:35.253Z,99978.75
2022-08-25T02:02:04.867Z,99975.50
2022-08-25T02:04:33.309Z,99973.31
2022-08-25T02:07:02.439Z,99967.16
2022-08-25T02:09:31.530Z,99969.84
2022-08-25T02:11:59.458Z,99959.81
2022-08-25T02:14:28.461Z,99972.06
2022-08-25T02:16:57.045Z,99976.31
2022-08-25T02:19:25.899Z,99972.84
2022-08-25T02:21:53.657Z,99969.94
2022-08-25T02:24:21.775Z,99974.53
2022-08-25T02:26:51.339Z,99963.66
2022-08-25T02:29:19.085Z,99963.66
2022-08-25T02:31:46.928Z,99964.34
2022-08-25T02:34:16.005Z,99963.97
2022-08-25T02:36:44.750Z,99963.31
2022-08-25T02:39:13.412Z,99972.16
2022-08-25T02:41:41.354Z,99967.91
2022-08-25T02:44:10.628Z,99969.09
2022-08-25T02:46:38.750Z,99968.38
2022-08-25T02:49:07.474Z,99976.91
2022-08-25T02:51:35.649Z,99973.16
2022-08-25T02:54:07.031Z,99977.72
2022-08-25T02:56:34.773Z,99971.91
2022-08-25T02:59:03.032Z,99977.19
2022-08-25T03:01:33.446Z,99977.78
2022-08-25T03:04:02.675Z,99969.91
2022-08-25T03:06:31.495Z,99975.00
2022-08-25T03:08:59.073Z,99972.53
2022-08-25T03:11:26.687Z,99970.19
2022-08-25T03:13:54.319Z,99959.03
2022-08-25T03:16:22.518Z,99960.34
2022-08-25T03:18:57.552Z,99962.38
2022-08-25T03:21:25.696Z,99950.09
2022-08-25T03:23:53.264Z,99951.28
2022-08-25T03:26:38.285Z,99937.34
2022-08-25T03:29:05.753Z,99941.06
2022-08-25T03:31:34.196Z,99943.28
2022-08-25T03:34:03.315Z,99940.91
2022-08-25T03:36:30.938Z,99938.84
2022-08-25T03:39:00.415Z,99937.56
2022-08-25T03:41:33.434Z,99935.09
2022-08-25T03:44:03.330Z,99944.63
2022-08-25T03:46:33.203Z,99943.91
2022-08-25T03:49:04.217Z,99938.63
2022-08-25T03:51:34.973Z,99945.06
2022-08-25T03:54:04.714Z,99946.94
2022-08-25T03:56:32.321Z,99948.63
2022-08-25T03:59:00.496Z,99946.06
2022-08-25T04:01:28.361Z,99948.91
2022-08-25T04:03:56.028Z,99946.38
2022-08-25T04:06:24.919Z,99937.06
2022-08-25T04:08:53.435Z,99944.34
2022-08-25T04:11:24.316Z,99935.19
2022-08-25T04:13:53.125Z,99933.66
2022-08-25T04:16:23.373Z,99937.75
2022-08-25T04:18:52.049Z,99924.19
2022-08-25T04:21:21.429Z,99925.63
2022-08-25T04:23:51.113Z,99925.66
2022-08-25T04:26:25.949Z,99921.50
2022-08-25T04:28:53.888Z,99918.09
2022-08-25T04:31:22.691Z,99914.66
2022-08-25T04:33:51.041Z,99904.13
2022-08-25T04:36:20.985Z,99904.56
2022-08-25T04:38:50.614Z,99913.13
2022-08-25T04:41:24.250Z,99912.28
2022-08-25T04:43:52.994Z,99913.53
2022-08-25T04:46:23.014Z,99914.41
2022-08-25T04:48:51.935Z,99906.13
2022-08-25T04:51:23.610Z,99906.78
2022-08-25T04:53:53.154Z,99912.53
2022-08-25T04:56:22.904Z,99913.38
2022-08-25T04:58:50.437Z,99914.09
2022-08-25T05:01:20.762Z,99924.38
2022-08-25T05:03:53.395Z,99928.53
2022-08-25T05:06:21.020Z,99928.69
2022-08-25T05:08:48.577Z,99922.22
2022-08-25T05:11:18.882Z,99925.97
2022-08-25T05:13:51.175Z,99926.41
2022-08-25T05:16:21.028Z,99923.38
2022-08-25T05:18:48.894Z,99920.09
2022-08-25T05:21:18.802Z,99933.66
2022-08-25T05:23:47.432Z,99925.25
2022-08-25T05:26:20.355Z,99924.38
2022-08-25T05:28:50.319Z,99924.34
2022-08-25T05:31:19.794Z,99923.94
2022-08-25T05:33:47.495Z,99912.94
2022-08-25T05:36:15.866Z,99919.19
2022-08-25T05:38:43.782Z,99921.75
2022-08-25T05:41:13.023Z,99921.03
2022-08-25T05:43:43.724Z,99917.00
2022-08-25T05:46:13.214Z,99919.13
2022-08-25T05:48:40.945Z,99926.38
2022-08-25T05:51:11.057Z,99925.47
2022-08-25T05:53:40.494Z,99918.78
2022-08-25T05:56:09.037Z,99910.16
2022-08-25T05:58:37.787Z,99909.88
2022-08-25T06:01:21.373Z,99910.97
2022-08-25T06:03:53.227Z,99913.97
2022-08-25T06:06:21.897Z,99904.22
2022-08-25T06:08:49.458Z,99901.78
2022-08-25T06:11:17.395Z,99896.06
2022-08-25T06:13:45.488Z,99898.88
2022-08-25T06:16:14.601Z,99902.53
2022-08-25T06:18:42.179Z,99905.53
2022-08-25T06:21:12.632Z,99903.97
2022-08-25T06:23:40.609Z,99909.13
2022-08-25T06:26:10.869Z,99916.06
2022-08-25T06:28:41.324Z,99919.00
2022-08-25T06:31:09.623Z,99916.91
2022-08-25T06:33:38.602Z,99921.41
2022-08-25T06:36:06.832Z,99918.69
2022-08-25T06:38:34.416Z,99915.69
2022-08-25T06:41:03.474Z,99917.34
2022-08-25T06:43:31.072Z,99918.78
2022-08-25T06:45:58.697Z,99923.28
2022-08-25T06:48:26.247Z,99920.94
2022-08-25T06:50:55.173Z,99919.66
2022-08-25T06:53:22.794Z,99923.91
2022-08-25T06:55:57.753Z,99927.63
2022-08-25T06:58:25.719Z,99930.38
2022-08-25T07:00:53.544Z,99936.84
2022-08-25T07:05:53.785Z,99940.34
2022-08-25T07:08:23.263Z,99939.31
2022-08-25T07:10:50.819Z,99932.53
2022-08-25T07:13:18.415Z,99932.09
2022-08-25T07:15:46.178Z,99938.47
2022-08-25T07:18:14.364Z,99932.06
2022-08-25T07:20:42.084Z,99936.16
2022-08-25T07:23:09.658Z,99932.78
2022-08-25T07:25:38.777Z,99940.44
2022-08-25T07:28:06.478Z,99946.28
2022-08-25T07:30:36.901Z,99946.47
2022-08-25T07:33:06.730Z,99940.91
2022-08-25T07:35:37.786Z,99930.19
2022-08-25T07:38:10.127Z,99926.13
2022-08-25T07:40:43.005Z,99926.97
2022-08-25T07:43:11.370Z,99915.44
2022-08-25T07:45:42.123Z,99912.56
2022-08-25T07:48:19.696Z,99909.03
2022-08-25T07:50:49.480Z,99915.88
2022-08-25T07:53:18.246Z,99921.66
2022-08-25T07:55:47.353Z,99915.88
2022-08-25T07:58:15.820Z,99922.19
2022-08-25T08:00:43.843Z,99916.72
2022-08-25T08:03:19.970Z,99919.97
2022-08-25T08:05:59.671Z,99919.66
2022-08-25T08:08:27.677Z,99919.81
2022-08-25T08:11:05.293Z,99912.34
2022-08-25T08:13:37.922Z,99904.66
2022-08-25T08:16:10.556Z,99916.28
2022-08-25T08:18:39.191Z,99909.94
2022-08-25T08:21:12.184Z,99912.84
2022-08-25T08:23:40.045Z,99916.78
2022-08-25T08:26:09.039Z,99916.28
2022-08-25T08:28:37.109Z,99916.47
2022-08-25T08:31:05.599Z,99909.78
2022-08-25T08:33:40.942Z,99908.75
2022-08-25T08:36:11.747Z,99907.56
2022-08-25T08:38:41.692Z,99907.38
2022-08-25T08:42:09.591Z,99907.88
2022-08-25T08:44:44.044Z,99888.56
2022-08-25T08:47:22.957Z,99884.94
2022-08-25T08:49:57.045Z,99883.56
2022-08-25T08:52:36.415Z,99883.53
2022-08-25T08:55:11.273Z,99876.69
2022-08-25T08:57:45.822Z,99870.81
2022-08-25T09:00:14.356Z,99863.91
2022-08-25T09:02:52.305Z,99869.03
2022-08-25T09:05:22.022Z,99862.47
2022-08-25T09:07:56.234Z,99857.63
2022-08-25T09:10:27.593Z,99858.25
2022-08-25T09:13:11.843Z,99866.88
2022-08-25T09:16:03.374Z,99865.78
2022-08-25T09:18:40.989Z,99868.63
2022-08-25T09:21:29.031Z,99864.31
2022-08-25T09:24:12.309Z,99859.91
2022-08-25T09:26:46.338Z,99857.13
2022-08-25T09:29:21.658Z,99852.44
2022-08-25T09:31:49.884Z,99848.94
2022-08-25T09:34:21.197Z,99842.31
2022-08-25T09:36:52.709Z,99830.53
2022-08-25T09:39:22.106Z,99829.59
2022-08-25T09:41:53.042Z,99831.19
2022-08-25T09:44:25.987Z,99830.06
2022-08-25T09:47:02.000Z,99822.72
2022-08-25T09:49:35.032Z,99813.72
2022-08-25T09:52:22.180Z,99814.06
2022-08-25T09:54:50.148Z,99811.09
2022-08-25T09:57:30.678Z,99809.09
2022-08-25T10:00:11.041Z,99807.44
2022-08-25T10:02:38.694Z,99806.97
2022-08-25T10:05:23.201Z,99797.97
2022-08-25T10:07:55.497Z,99794.44
2022-08-25T10:10:32.379Z,99798.06
2022-08-25T10:13:01.658Z,99792.44
2022-08-25T10:15:35.053Z,99790.41
2022-08-25T10:18:24.210Z,99775.91
2022-08-25T10:21:07.781Z,99782.09
2022-08-25T10:23:38.597Z,99779.22
2022-08-25T10:26:14.190Z,99776.13
2022-08-25T10:28:54.495Z,99779.34
2022-08-25T10:31:26.975Z,99773.91
2022-08-25T10:34:08.931Z,99769.50
2022-08-25T10:36:48.778Z,99770.16
2022-08-25T10:39:34.523Z,99756.94
2022-08-25T10:42:15.229Z,99754.84
2022-08-25T10:45:16.219Z,99747.47
2022-08-25T10:48:12.970Z,99749.22
2022-08-25T10:50:45.387Z,99743.78
2022-08-25T10:53:26.414Z,99738.31
2022-08-25T10:56:07.156Z,99738.13
2022-08-25T10:59:00.176Z,99735.78
2022-08-25T11:01:44.149Z,99727.16
2022-08-25T11:04:16.799Z,99741.53
2022-08-25T11:06:54.680Z,99737.31
2022-08-25T11:09:26.420Z,99727.59
2022-08-25T11:11:59.494Z,99727.56
2022-08-25T11:14:34.595Z,99725.69
2022-08-25T11:17:07.242Z,99727.59
2022-08-25T11:19:39.933Z,99725.03
2022-08-25T11:22:15.748Z,99715.94
2022-08-25T11:24:57.881Z,99714.03
2022-08-25T11:27:34.876Z,99711.72
2022-08-25T11:30:07.260Z,99709.19
2022-08-25T11:32:36.103Z,99707.91
2022-08-25T11:35:08.687Z,99723.16
2022-08-25T11:37:47.846Z,99720.00
2022-08-25T11:40:41.956Z,99716.38
2022-08-25T11:43:25.304Z,99714.66
2022-08-25T11:46:07.831Z,99706.56
2022-08-25T11:48:42.694Z,99708.03
2022-08-25T11:51:26.954Z,99711.41
2022-08-25T11:54:16.827Z,99709.50
2022-08-25T11:56:53.401Z,99706.31
2022-08-25T11:59:54.894Z,99702.19
2022-08-25T12:02:36.230Z,99707.47
2022-08-25T12:05:06.336Z,99697.91
2022-08-25T12:08:19.485Z,99696.84
2022-08-25T12:10:56.955Z,99694.53
2022-08-25T12:13:42.780Z,99685.19
2022-08-25T12:16:43.628Z,99681.00
2022-08-25T12:19:48.383Z,99675.69
2022-08-25T12:22:51.319Z,99678.88
2022-08-25T12:25:50.811Z,99674.78
2022-08-25T12:28:52.511Z,99669.91
2022-08-25T12:31:31.581Z,99660.25
2022-08-25T12:34:16.413Z,99672.13
2022-08-25T12:36:56.575Z,99655.84
2022-08-25T12:39:29.941Z,99661.53
2022-08-25T12:42:03.683Z,99657.28
2022-08-25T12:44:40.466Z,99656.84
2022-08-25T12:47:14.984Z,99657.19
2022-08-25T12:49:42.721Z,99649.16
2022-08-25T12:52:14.602Z,99638.88
2022-08-25T12:54:49.820Z,99635.50
2022-08-25T12:57:40.539Z,99652.00
2022-08-25T13:00:18.439Z,99637.53
2022-08-25T13:03:13.819Z,99648.53
2022-08-25T13:06:00.607Z,99647.78
2022-08-25T13:08:49.726Z,99644.03
2022-08-25T13:11:24.463Z,99639.81
2022-08-25T13:13:58.574Z,99639.34
2022-08-25T13:16:29.746Z,99635.03
2022-08-25T13:19:01.401Z,99634.91
2022-08-25T13:21:31.763Z,99631.97
2022-08-25T13:24:05.489Z,99621.94
2022-08-25T13:26:36.041Z,99620.00
2022-08-25T13:29:17.866Z,99621.09
2022-08-25T13:31:55.014Z,99608.28
2022-08-25T13:34:34.346Z,99606.38
2022-08-25T13:37:25.005Z,99604.06
2022-08-25T13:40:07.630Z,99600.88
2022-08-25T13:42:39.176Z,99601.91
2022-08-25T13:45:16.094Z,99604.19
2022-08-25T13:47:45.815Z,99597.19
2022-08-25T13:50:21.129Z,99601.75
2022-08-25T13:52:54.157Z,99596.88
2022-08-25T13:55:27.439Z,99596.38
2022-08-25T13:57:55.659Z,99600.59
2022-08-25T14:00:33.017Z,99586.44
2022-08-25T14:03:01.981Z,99596.72
2022-08-25T14:05:40.449Z,99590.84
2022-08-25T14:08:32.253Z,99584.44
2022-08-25T14:11:14.778Z,99590.44
2022-08-25T14:13:44.633Z,99581.53
2022-08-25T14:16:15.654Z,99578.19
2022-08-25T14:18:49.728Z,99582.25
2022-08-25T14:21:26.603Z,99580.81
2022-08-25T14:23:55.254Z,99584.28
2022-08-25T14:26:24.460Z,99577.09
2022-08-25T14:28:54.387Z,99577.66
2022-08-25T14:31:27.624Z,99581.13
2022-08-25T14:33:59.400Z,99572.44
2022-08-25T14:36:27.709Z,99569.28
2022-08-25T14:38:57.412Z,99561.91
2022-08-25T14:41:27.481Z,99562.06
2022-08-25T14:43:55.012Z,99565.53
2022-08-25T14:46:27.904Z,99562.84
2022-08-25T14:48:57.951Z,99562.81
2022-08-25T14:51:27.742Z,99554.66
2022-08-25T14:54:02.439Z,99560.41
2022-08-25T14:56:32.402Z,99562.56
2022-08-25T14:59:00.720Z,99558.41
2022-08-25T15:01:30.215Z,99552.09
2022-08-25T15:04:02.630Z,99550.47
2022-08-25T15:06:30.700Z,99551.56
2022-08-25T15:09:11.079Z,99550.47
2022-08-25T15:11:42.695Z,99550.16
2022-08-25T15:14:12.333Z,99545.34
2022-08-25T15:16:43.329Z,99550.09
2022-08-25T15:19:14.485Z,99546.25
2022-08-25T15:21:43.920Z,99546.16
2022-08-25T15:24:13.196Z,99539.44
2022-08-25T15:29:23.298Z,99535.31
2022-08-25T15:31:51.589Z,99535.13
2022-08-25T15:34:19.243Z,99539.19
2022-08-25T15:36:46.856Z,99527.63
2022-08-25T15:39:15.132Z,99528.03
2022-08-25T15:41:49.290Z,99525.91
2022-08-25T15:44:17.534Z,99526.13
2022-08-25T15:46:47.110Z,99518.47
2022-08-25T15:49:20.907Z,99528.41
2022-08-25T15:51:51.488Z,99518.84
2022-08-25T15:54:19.619Z,99522.78
2022-08-25T15:56:48.682Z,99518.41
2022-08-25T15:59:16.894Z,99521.34
2022-08-25T16:01:45.236Z,99511.22
2022-08-25T16:04:14.357Z,99514.47
2022-08-25T16:06:42.159Z,99521.31
2022-08-25T16:09:09.804Z,99519.34
2022-08-25T16:11:38.670Z,99517.75
2022-08-25T16:14:07.638Z,99523.91
2022-08-25T16:16:35.204Z,99523.59
2022-08-25T16:19:03.018Z,99514.13
2022-08-25T16:21:34.922Z,99519.88
2022-08-25T16:24:07.591Z,99518.47
2022-08-25T16:26:38.055Z,99513.63
2022-08-25T16:29:17.273Z,99503.47
2022-08-25T16:31:45.100Z,99510.09
2022-08-25T16:34:20.720Z,99514.38
2022-08-25T16:36:48.285Z,99524.38
2022-08-25T16:39:19.459Z,99509.38
2022-08-25T16:41:48.482Z,99500.72
2022-08-25T16:44:22.491Z,99508.16
2022-08-25T16:46:54.218Z,99506.69
2022-08-25T16:49:24.493Z,99497.78
2022-08-25T16:51:57.667Z,99500.13
2022-08-25T16:54:43.796Z,99499.53
2022-08-25T16:57:11.730Z,99499.56
2022-08-25T16:59:42.385Z,99500.84
2022-08-25T17:02:11.525Z,99496.16
2022-08-25T17:04:41.113Z,99504.44
2022-08-25T17:07:08.691Z,99506.75
2022-08-25T17:09:36.279Z,99504.44
2022-08-25T17:12:05.087Z,99500.84
2022-08-25T17:14:33.225Z,99508.66
2022-08-25T17:17:03.455Z,99507.19
2022-08-25T17:19:34.622Z,99506.78
2022-08-25T17:22:02.381Z,99504.03
2022-08-25T17:24:31.745Z,99507.22
2022-08-25T17:27:01.601Z,99512.91
2022-08-25T17:29:29.919Z,99510.38
2022-08-25T17:31:58.349Z,99518.63
2022-08-25T17:34:29.150Z,99515.41
2022-08-25T17:36:57.089Z,99514.75
2022-08-25T17:39:25.676Z,99519.41
2022-08-25T17:41:54.568Z,99514.34
2022-08-25T17:44:22.121Z,99512.84
2022-08-25T17:46:50.694Z,99522.97
2022-08-25T17:49:19.701Z,99515.13
2022-08-25T17:51:48.632Z,99515.75
2022-08-25T17:54:17.074Z,99518.06
2022-08-25T17:56:44.602Z,99516.50
2022-08-25T17:59:13.687Z,99518.50
2022-08-25T18:01:42.226Z,99523.56
2022-08-25T18:04:16.959Z,99521.38
2022-08-25T18:06:46.124Z,99522.94
2022-08-25T18:09:15.452Z,99523.22
2022-08-25T18:11:43.036Z,99526.84
2022-08-25T18:14:11.611Z,99527.13
2022-08-25T18:16:40.172Z,99519.66
2022-08-25T18:19:09.774Z,99529.72
2022-08-25T18:21:38.623Z,99530.28
2022-08-25T18:24:06.677Z,99525.47
2022-08-25T18:26:36.105Z,99530.97
2022-08-25T18:29:04.977Z,99524.38
2022-08-25T18:31:32.774Z,99524.94
2022-08-25T18:34:00.519Z,99530.16
2022-08-25T18:36:28.238Z,99530.81
2022-08-25T18:39:13.621Z,99539.22
2022-08-25T18:41:45.096Z,99528.66
2022-08-25T18:44:12.910Z,99530.34
2022-08-25T18:46:43.510Z,99536.78
2022-08-25T18:49:15.695Z,99532.09
2022-08-25T18:51:44.529Z,99537.09
2022-08-25T18:54:23.145Z,99532.47
2022-08-25T18:56:53.949Z,99527.59
2022-08-25T18:59:23.551Z,99531.38
2022-08-25T19:01:52.956Z,99531.75
2022-08-25T19:04:20.758Z,99535.03
2022-08-25T19:06:56.139Z,99533.22
2022-08-25T19:09:23.694Z,99536.50
2022-08-25T19:11:53.172Z,99539.34
2022-08-25T19:14:22.393Z,99549.53
2022-08-25T19:16:51.677Z,99542.56
2022-08-25T19:19:20.203Z,99539.50
2022-08-25T19:21:48.348Z,99545.38
2022-08-25T19:24:19.186Z,99541.47
2022-08-25T19:26:51.455Z,99545.09
2022-08-25T19:29:23.988Z,99539.13
2022-08-25T19:31:51.710Z,99554.75
2022-08-25T19:34:22.225Z,99548.63
2022-08-25T19:36:51.043Z,99551.34
2022-08-25T19:39:19.251Z,99546.28
2022-08-25T19:41:47.497Z,99544.28
2022-08-25T19:44:16.140Z,99543.28
2022-08-25T19:46:46.232Z,99546.38
2022-08-25T19:49:17.285Z,99547.41
2022-08-25T19:51:47.886Z,99550.63
2022-08-25T19:54:21.022Z,99548.94
2022-08-25T19:56:54.755Z,99545.25
2022-08-25T19:59:24.998Z,99546.28
2022-08-25T20:01:54.659Z,99551.13
2022-08-25T20:04:24.124Z,99548.41
2022-08-25T20:06:52.526Z,99555.53
2022-08-25T20:09:39.629Z,99551.31
2022-08-25T20:12:10.187Z,99553.91
2022-08-25T20:14:38.038Z,99555.50
2022-08-25T20:17:23.896Z,99557.56
2022-08-25T20:19:55.847Z,99553.19
2022-08-25T20:22:26.100Z,99552.88
2022-08-25T20:24:57.395Z,99562.09
2022-08-25T20:27:28.130Z,99562.13
2022-08-25T20:29:55.765Z,99561.09
2022-08-25T20:32:26.063Z,99559.94
2022-08-25T20:34:56.904Z,99560.50
2022-08-25T20:37:25.668Z,99565.63
2022-08-25T20:39:53.565Z,99564.66
2022-08-25T20:42:21.489Z,99563.00
2022-08-25T20:44:49.088Z,99562.13
2022-08-25T20:47:20.536Z,99552.44
2022-08-25T20:49:50.228Z,99551.44
2022-08-25T20:52:19.318Z,99553.84
2022-08-25T20:54:49.621Z,99553.53
2022-08-25T20:57:19.140Z,99553.72
2022-08-25T20:59:54.549Z,99557.28
2022-08-25T21:02:22.827Z,99555.63
2022-08-25T21:04:52.599Z,99554.91
2022-08-25T21:07:20.355Z,99554.91
2022-08-25T21:09:48.389Z,99554.41
2022-08-25T21:12:16.625Z,99559.53
2022-08-25T21:14:44.737Z,99557.81
2022-08-25T21:17:13.556Z,99555.97
2022-08-25T21:19:42.186Z,99557.00
2022-08-25T21:22:11.472Z,99555.59
2022-08-25T21:24:39.502Z,99559.84
2022-08-25T21:27:07.226Z,99549.84
2022-08-25T21:29:35.256Z,99552.41
2022-08-25T21:32:03.234Z,99552.25
2022-08-25T21:34:31.831Z,99555.66
2022-08-25T21:37:00.256Z,99556.34
2022-08-25T21:39:32.084Z,99560.44
2022-08-25T21:42:00.416Z,99563.00
2022-08-25T21:44:29.429Z,99562.16
2022-08-25T21:46:57.176Z,99557.56
2022-08-25T21:49:24.919Z,99560.28
2022-08-25T21:52:02.399Z,99560.63
2022-08-25T21:54:33.382Z,99561.47
2022-08-25T21:57:04.316Z,99558.91
2022-08-25T21:59:34.673Z,99563.69
2022-08-25T22:02:07.356Z,99560.09
2022-08-25T22:04:36.828Z,99561.94
2022-08-25T22:07:07.439Z,99559.78
2022-08-25T22:09:37.176Z,99557.38
2022-08-25T22:12:06.009Z,99549.22
2022-08-25T22:14:33.894Z,99558.38
2022-08-25T22:17:04.636Z,99552.59
2022-08-25T22:19:33.163Z,99555.31
2022-08-25T22:22:01.324Z,99558.03
2022-08-25T22:24:28.953Z,99555.66
2022-08-25T22:26:58.380Z,99558.56
2022-08-25T22:29:26.270Z,99562.09
2022-08-25T22:31:57.841Z,99566.22
2022-08-25T22:34:31.957Z,99556.50
2022-08-25T22:37:00.296Z,99552.59
2022-08-25T22:39:28.106Z,99563.00
2022-08-25T22:41:55.777Z,99562.44
2022-08-25T22:44:25.507Z,99558.53
2022-08-25T22:46:53.330Z,99559.94
2022-08-25T22:49:21.712Z,99558.72
2022-08-25T22:51:49.894Z,99566.06
2022-08-25T22:54:18.595Z,99569.63
2022-08-25T22:56:46.489Z,99568.75
2022-08-25T22:59:15.485Z,99570.97
2022-08-25T23:01:45.893Z,99561.94
2022-08-25T23:04:14.683Z,99562.44
2022-08-25T23:06:42.865Z,99567.84
2022-08-25T23:09:11.660Z,99568.38
2022-08-25T23:11:40.014Z,99560.38
2022-08-25T23:14:10.947Z,99559.28
2022-08-25T23:16:39.309Z,99566.94
2022-08-25T23:19:14.008Z,99559.28
2022-08-25T23:21:59.535Z,99557.00
2022-08-25T23:24:30.132Z,99559.56
2022-08-25T23:26:58.683Z,99561.28
2022-08-25T23:29:27.453Z,99557.03
2022-08-25T23:31:55.144Z,99564.91
2022-08-25T23:34:25.542Z,99562.06
2022-08-25T23:36:53.588Z,99563.44
2022-08-25T23:39:22.275Z,99563.44
2022-08-25T23:41:49.972Z,99552.75
2022-08-25T23:44:18.761Z,99557.00
2022-08-25T23:46:47.574Z,99555.84
2022-08-25T23:49:18.204Z,99556.19
2022-08-25T23:51:50.058Z,99551.59
2022-08-25T23:54:21.321Z,99555.00
2022-08-25T23:56:52.289Z,99555.16
2022-08-25T23:59:24.574Z,99549.22
